Beaver Creek, Illinois
Current Conditions -  °F | °C
As of 4:55 PM on Thursday 23 Oct 2014 (Local Time) from K3LF Reporting Station
Broken Clouds Broken Clouds  
Wind Chill: 15°   Ceiling: 5000
Heat Index: 15°   Visibility: 10mi
Dew Point:   Wind: 7mph
Humidity: 49%   Direction: 170°S
Pressure: 30.11"   Gusts: NA
Location:  38.895°N, 89.397°W
Report Text: K3LF 232155Z AUTO 17006KT 10SM BKN050 BKN055 15/05 A3011 RMK AO2 T01520046
Loading
Personal Weather Stations






























Interactive Weather Map
Tropical Storm Tracking
New forecast layout! Learn more

10-Day Weather Forecast

Advertisements
Track Severe Weather on mobile